Nearby METAR Reports

 

EBAW - Antwerp/Deurne, Belgium
Distance from station: ZZO 9km
Ververst: 08/02/2023 20:20
Helder
Helder
 Wind van O
Wind: O 6 km/h
Temperatuur: 1°C
Dauwpunt: -6°C
Vochtigheid: 60%
Barometer: 1033 hPa
Overzicht: Helder
Visibility: greater than 10 km
2023/02/08 19:20 EBAW 081920Z 08003KT CAVOK 01/M06 Q1033 NOSIG
EHWO - Woensdrecht Rnla, Netherlands
Distance from station: NNW 20km
Ververst: 08/02/2023 20:25
Meestal bewolkt
Meestal bewolkt
 Wind van varies
Wind: varies 4 km/h
Temperatuur: -2°C
Dauwpunt: -7°C
Vochtigheid: 69%
Barometer: 1033 hPa
Clouds: Meestal bewolkt
Visibility: 10 km
Cloud details: Meestal bewolkt 11582 m
2023/02/08 19:25 EHWO 081925Z AUTO VRB02KT 9999 BKN380 M02/M07 Q1033 BLU
 
EBBR - Brussels Nationa, Belgium
Distance from station: Z 43km
Ververst: 08/02/2023 20:20
Helder
Helder
 Wind van varies
Wind: varies 4 km/h
Temperatuur: 0°C
Dauwpunt: -5°C
Vochtigheid: 69%
Barometer: 1032 hPa
Overzicht: Helder
Visibility: greater than 10 km
2023/02/08 19:20 EBBR 081920Z VRB02KT CAVOK 00/M05 Q1032 NOSIG
EHGR - Gilze-Rijen Rnla, Netherlands
Distance from station: NO 47km
Ververst: 08/02/2023 20:49
Helder
Helder
 Wind van ZO
Wind: ZO 6 km/h
Temperatuur: -2°C
Dauwpunt: -7°C
Vochtigheid: 69%
Barometer: 1033 hPa
Clouds: Helder
Visibility: 10 km
2023/02/08 19:49 EHGR 081949Z AUTO 14003KT 9999 NCD M02/M07 Q1033 BLU
 
EBDT - Schaffen, Belgium
Distance from station: OZO 54km
Ververst: 08/02/2023 20:25
Helder
Helder
 Wind van varies
Wind: varies 4 km/h
Temperatuur: 3°C
Dauwpunt: -8°C
Vochtigheid: 45%
Barometer: 1033 hPa
Clouds: Helder
Visibility: 10 km
2023/02/08 19:25 EBDT 081925Z AUTO VRB02KT 9999 NCD 03/M08 Q1033 BLU
EHFS - Vlissingen, Netherlands
Distance from station: WNW 60km
Ververst: 08/02/2023 20:25
Gedeeltelijk bewolkt
Gedeeltelijk bewolkt
 Wind van ZZO
Wind: ZZO 15 km/h
Temperatuur: 5°C
Gevoelstemp.: 2°C
Dauwpunt: -2°C
Vochtigheid: 61%
Barometer: 1032 hPa
Clouds: Gedeeltelijk bewolkt
Visibility: 10 km
2023/02/08 19:25 EHFS 081925Z AUTO 16008KT 9999 NSC 05/M02 Q1032
 
EBBE - Beauvechain (baf, Belgium
Distance from station: ZZO 64km
Ververst: 08/02/2023 20:25
Helder
Helder
 Wind van ZO
Wind: ZO 6 km/h
Temperatuur: 3°C
Dauwpunt: -7°C
Vochtigheid: 48%
Barometer: 1032 hPa
Clouds: Helder
Visibility: 10 km
2023/02/08 19:25 EBBE 081925Z AUTO 13003KT 9999 NCD 03/M07 Q1032 BLU
EHEH - Eindhoven Rnlafb, Netherlands
Distance from station: ONO 69km
Ververst: 08/02/2023 20:25
Helder
Helder
 Wind van calm
Wind: Kalm
Temperatuur: -1°C
Dauwpunt: -7°C
Vochtigheid: 64%
Barometer: 1033 hPa
Clouds: Helder
Visibility: 10 km
2023/02/08 19:25 EHEH 081925Z AUTO 00000KT 9999 NCD M01/M07 Q1033 BLU NOSIG
 
EBBL - Kleine-Brogel(Ba, Belgium
Distance from station: O 74km
Ververst: 08/02/2023 20:25
Helder
Helder
 Wind van varies
Wind: varies 2 km/h
Temperatuur: -1°C
Dauwpunt: -7°C
Vochtigheid: 64%
Barometer: 1033 hPa
Clouds: Helder
Visibility: 10 km
2023/02/08 19:25 EBBL 081925Z AUTO VRB01KT 9999 NCD M01/M07 Q1033 BLU
EHRD - Rotterdam Airpor, Netherlands
Distance from station: N 75km
Ververst: 08/02/2023 20:25
Gedeeltelijk bewolkt
Gedeeltelijk bewolkt
 Wind van varies
Wind: varies 2 km/h
Temperatuur: 0°C
Dauwpunt: -3°C
Vochtigheid: 80%
Barometer: 1032 hPa
Clouds: Gedeeltelijk bewolkt
Visibility: 10 km
2023/02/08 19:25 EHRD 081925Z AUTO VRB01KT 9999 NSC M00/M03 Q1032 NOSIG
 
EHSC - Goeree Le Sea, Netherlands
Distance from station: NW 89km
Ververst: 08/02/2023 20:25

 Wind van ZZO
Wind: ZZO 15 km/h
Temperatuur: 6°C
Gevoelstemp.: 3°C
Dauwpunt: -2°C
Vochtigheid: 57%
Barometer: 1033 hPa
Visibility: 10 km
2023/02/08 19:25 EHSC 081925Z AUTO 16008KT 9999 ///////// 06/M02 Q1033 W08/H3
EBCI - Charleroi/Gossel, Belgium
Distance from station: Z 90km
Ververst: 08/02/2023 20:20
Helder
Helder
 Wind van ZO
Wind: ZO 6 km/h
Temperatuur: 2°C
Dauwpunt: -8°C
Vochtigheid: 48%
Barometer: 1032 hPa
Overzicht: Helder
Visibility: greater than 10 km
2023/02/08 19:20 EBCI 081920Z 14003KT CAVOK 02/M08 Q1032 NOSIG
 
EBCV - Chievres Ab, Belgium
Distance from station: ZZW 90km
Ververst: 08/02/2023 20:25
Helder
Helder
 Wind van varies
Wind: varies 4 km/h
Temperatuur: 1°C
Dauwpunt: -4°C
Vochtigheid: 70%
Barometer: 1032 hPa
Clouds: Helder
Visibility: 10 km
2023/02/08 19:25 EBCV 081925Z AUTO VRB02KT 9999 NCD 01/M04 Q1032 BLU
EHVK - Volkel Rnlafb, Netherlands
Distance from station: ONO 97km
Ververst: 08/02/2023 20:25
Helder
Helder
 Wind van ZO
Wind: ZO 7 km/h
Temperatuur: 3°C
Gevoelstemp.: 1°C
Dauwpunt: -7°C
Vochtigheid: 48%
Barometer: 1033 hPa
Clouds: Helder
Visibility: 10 km
2023/02/08 19:25 EHVK 081925Z AUTO 14004KT 9999 NCD 03/M07 Q1033 BLU NOSIG
 
EBLG - Bierset/Liege (c, Belgium
Distance from station: ZO 102km
Ververst: 08/02/2023 20:20
Helder
Helder
 Wind van Z
Wind: Z 7 km/h
Temperatuur: 2°C
Gevoelstemp.: 0°C
Dauwpunt: -7°C
Vochtigheid: 52%
Barometer: 1032 hPa
Overzicht: Helder
Visibility: greater than 10 km
2023/02/08 19:20 EBLG 081920Z 17004KT CAVOK 02/M07 Q1032 NOSIG
EHBK - Zuid-Limburg/Bee, Netherlands
Distance from station: OZO 102km
Ververst: 08/02/2023 20:25
Gedeeltelijk bewolkt
Gedeeltelijk bewolkt
 Wind van ZO
Wind: ZO 13 km/h
Temperatuur: 2°C
Gevoelstemp.: -1°C
Dauwpunt: -7°C
Vochtigheid: 52%
Barometer: 1032 hPa
Clouds: Gedeeltelijk bewolkt
Visibility: 10 km
2023/02/08 19:25 EHBK 081925Z AUTO 14007KT 9999 NSC 02/M07 Q1032 NOSIG
 
EBOS - Oostende Airport, Belgium
Distance from station: W 108km
Ververst: 08/02/2023 20:20
Helder
Helder
 Wind van ZO
Wind: ZO 9 km/h
Temperatuur: 1°C
Gevoelstemp.: -2°C
Dauwpunt: -5°C
Vochtigheid: 65%
Barometer: 1033 hPa
Overzicht: Helder
Visibility: greater than 10 km
2023/02/08 19:20 EBOS 081920Z 14005KT CAVOK 01/M05 Q1033 NOSIG
EHSA - Euro Platform, Netherlands
Distance from station: NW 112km
Ververst: 07/02/2023 09:25
NOT Current

 Wind van varies
Wind: varies 0 km/h
2023/02/07 08:25 EHSA 070825Z AUTO /////KT //// // ///////// ///// Q//// RE// W///H///
 
EHAM - Amsterdam/Schiph, Netherlands
Distance from station: NNO 118km
Ververst: 08/02/2023 20:25
Helder
Helder
 Wind van ZO
Wind: ZO 7 km/h
Temperatuur: 0°C
Gevoelstemp.: -3°C
Dauwpunt: -5°C
Vochtigheid: 69%
Barometer: 1033 hPa
Overzicht: Helder
Visibility: greater than 10 km
2023/02/08 19:25 EHAM 081925Z 13004KT CAVOK M00/M05 Q1033 NOSIG
ETNG - Geilenkirchen(Na, Germany
Distance from station: OZO 118km
Ververst: 08/02/2023 20:50
Helder
Helder
 Wind van ZO
Wind: ZO 6 km/h
Temperatuur: 2°C
Dauwpunt: -6°C
Vochtigheid: 56%
Barometer: 1033 hPa
Overzicht: Helder
Visibility: greater than 10 km
2023/02/08 19:50 ETNG 081950Z 13003KT CAVOK 02/M06 Q1033 NOSIG